sensor_id;sensor_type;location;lat;lon;timestamp;P1;durP1;ratioP1;P2;durP2;ratioP2
19448;SDS011;9863;49.404;8.246;2022-07-06T00:01:06;822.95;;;768.72;;
19448;SDS011;9863;49.404;8.246;2022-07-06T00:03:34;822.95;;;768.40;;
19448;SDS011;9863;49.404;8.246;2022-07-06T00:06:02;818.70;;;764.00;;
19448;SDS011;9863;49.404;8.246;2022-07-06T00:08:30;821.67;;;767.28;;
19448;SDS011;9863;49.404;8.246;2022-07-06T00:10:59;819.38;;;764.97;;
19448;SDS011;9863;49.404;8.246;2022-07-06T00:13:27;814.65;;;760.60;;
19448;SDS011;9863;49.404;8.246;2022-07-06T00:15:55;820.80;;;764.95;;
19448;SDS011;9863;49.404;8.246;2022-07-06T00:18:23;820.50;;;764.70;;
19448;SDS011;9863;49.404;8.246;2022-07-06T00:20:52;817.53;;;762.78;;
19448;SDS011;9863;49.404;8.246;2022-07-06T00:23:20;812.42;;;757.58;;
19448;SDS011;9863;49.404;8.246;2022-07-06T00:25:49;803.05;;;748.70;;
19448;SDS011;9863;49.404;8.246;2022-07-06T00:28:17;804.00;;;749.72;;
19448;SDS011;9863;49.404;8.246;2022-07-06T00:30:46;809.70;;;753.83;;
19448;SDS011;9863;49.404;8.246;2022-07-06T00:33:14;799.30;;;744.00;;
19448;SDS011;9863;49.404;8.246;2022-07-06T00:35:42;800.35;;;744.65;;
19448;SDS011;9863;49.404;8.246;2022-07-06T00:38:10;795.60;;;740.15;;
19448;SDS011;9863;49.404;8.246;2022-07-06T00:40:39;791.10;;;735.58;;
19448;SDS011;9863;49.404;8.246;2022-07-06T00:43:08;790.35;;;735.28;;
19448;SDS011;9863;49.404;8.246;2022-07-06T00:45:36;794.25;;;737.58;;
19448;SDS011;9863;49.404;8.246;2022-07-06T00:48:04;795.30;;;739.60;;
19448;SDS011;9863;49.404;8.246;2022-07-06T00:50:33;793.78;;;738.25;;
19448;SDS011;9863;49.404;8.246;2022-07-06T00:53:05;788.05;;;733.20;;
19448;SDS011;9863;49.404;8.246;2022-07-06T00:55:35;789.97;;;734.40;;
19448;SDS011;9863;49.404;8.246;2022-07-06T00:58:07;789.85;;;734.58;;
19448;SDS011;9863;49.404;8.246;2022-07-06T01:00:36;784.53;;;729.22;;
19448;SDS011;9863;49.404;8.246;2022-07-06T01:03:05;785.88;;;731.50;;
19448;SDS011;9863;49.404;8.246;2022-07-06T01:05:34;787.63;;;732.25;;
19448;SDS011;9863;49.404;8.246;2022-07-06T01:08:02;790.05;;;734.65;;
19448;SDS011;9863;49.404;8.246;2022-07-06T01:10:30;782.67;;;727.13;;
19448;SDS011;9863;49.404;8.246;2022-07-06T01:12:59;778.60;;;723.83;;
19448;SDS011;9863;49.404;8.246;2022-07-06T01:15:27;770.83;;;716.90;;
19448;SDS011;9863;49.404;8.246;2022-07-06T01:17:55;769.58;;;715.78;;
19448;SDS011;9863;49.404;8.246;2022-07-06T01:20:29;774.80;;;719.70;;
19448;SDS011;9863;49.404;8.246;2022-07-06T01:22:58;771.80;;;717.03;;
19448;SDS011;9863;49.404;8.246;2022-07-06T01:25:27;774.47;;;719.03;;
19448;SDS011;9863;49.404;8.246;2022-07-06T01:27:55;767.75;;;713.05;;
19448;SDS011;9863;49.404;8.246;2022-07-06T01:30:24;760.80;;;706.80;;
19448;SDS011;9863;49.404;8.246;2022-07-06T01:32:52;769.63;;;715.15;;
19448;SDS011;9863;49.404;8.246;2022-07-06T01:35:20;770.00;;;715.30;;
19448;SDS011;9863;49.404;8.246;2022-07-06T01:37:49;764.63;;;710.10;;
19448;SDS011;9863;49.404;8.246;2022-07-06T01:40:17;757.08;;;703.15;;
19448;SDS011;9863;49.404;8.246;2022-07-06T01:42:49;763.78;;;708.47;;
19448;SDS011;9863;49.404;8.246;2022-07-06T01:45:18;759.53;;;706.78;;
19448;SDS011;9863;49.404;8.246;2022-07-06T01:47:47;762.25;;;708.85;;
19448;SDS011;9863;49.404;8.246;2022-07-06T01:50:16;766.97;;;712.60;;
19448;SDS011;9863;49.404;8.246;2022-07-06T01:52:45;759.22;;;705.35;;
19448;SDS011;9863;49.404;8.246;2022-07-06T01:55:14;759.60;;;705.83;;
19448;SDS011;9863;49.404;8.246;2022-07-06T01:57:43;758.65;;;704.50;;
19448;SDS011;9863;49.404;8.246;2022-07-06T02:00:11;754.97;;;702.13;;
19448;SDS011;9863;49.404;8.246;2022-07-06T02:02:43;756.88;;;703.25;;
19448;SDS011;9863;49.404;8.246;2022-07-06T02:05:12;750.15;;;697.53;;
19448;SDS011;9863;49.404;8.246;2022-07-06T02:07:40;744.65;;;691.30;;
19448;SDS011;9863;49.404;8.246;2022-07-06T02:10:11;738.67;;;684.97;;
19448;SDS011;9863;49.404;8.246;2022-07-06T02:12:39;742.75;;;689.97;;
19448;SDS011;9863;49.404;8.246;2022-07-06T02:15:07;744.83;;;691.80;;
19448;SDS011;9863;49.404;8.246;2022-07-06T02:17:35;739.00;;;684.80;;
19448;SDS011;9863;49.404;8.246;2022-07-06T02:20:04;750.90;;;695.95;;
19448;SDS011;9863;49.404;8.246;2022-07-06T02:22:33;733.63;;;681.00;;
19448;SDS011;9863;49.404;8.246;2022-07-06T02:25:01;735.88;;;682.08;;
19448;SDS011;9863;49.404;8.246;2022-07-06T02:27:31;733.78;;;680.38;;
19448;SDS011;9863;49.404;8.246;2022-07-06T02:30:15;729.22;;;676.72;;
19448;SDS011;9863;49.404;8.246;2022-07-06T02:32:43;725.20;;;672.20;;
19448;SDS011;9863;49.404;8.246;2022-07-06T02:35:11;731.83;;;678.42;;
19448;SDS011;9863;49.404;8.246;2022-07-06T02:37:40;739.33;;;684.83;;
19448;SDS011;9863;49.404;8.246;2022-07-06T02:40:08;734.70;;;680.22;;
19448;SDS011;9863;49.404;8.246;2022-07-06T02:42:37;726.80;;;673.97;;
19448;SDS011;9863;49.404;8.246;2022-07-06T02:45:07;736.17;;;682.33;;
19448;SDS011;9863;49.404;8.246;2022-07-06T02:47:40;730.22;;;677.25;;
19448;SDS011;9863;49.404;8.246;2022-07-06T02:50:08;725.47;;;671.65;;
19448;SDS011;9863;49.404;8.246;2022-07-06T02:52:37;730.95;;;676.88;;
19448;SDS011;9863;49.404;8.246;2022-07-06T02:55:09;721.17;;;667.67;;
19448;SDS011;9863;49.404;8.246;2022-07-06T02:57:39;726.47;;;672.92;;
19448;SDS011;9863;49.404;8.246;2022-07-06T03:00:07;722.95;;;669.67;;
19448;SDS011;9863;49.404;8.246;2022-07-06T03:02:38;712.53;;;660.88;;
19448;SDS011;9863;49.404;8.246;2022-07-06T03:05:08;713.72;;;662.03;;
19448;SDS011;9863;49.404;8.246;2022-07-06T03:07:36;722.50;;;668.78;;
19448;SDS011;9863;49.404;8.246;2022-07-06T03:10:06;716.17;;;663.65;;
19448;SDS011;9863;49.404;8.246;2022-07-06T03:12:34;704.42;;;652.92;;
19448;SDS011;9863;49.404;8.246;2022-07-06T03:15:02;710.00;;;657.58;;
19448;SDS011;9863;49.404;8.246;2022-07-06T03:17:32;708.47;;;655.80;;
19448;SDS011;9863;49.404;8.246;2022-07-06T03:20:00;711.85;;;659.05;;
19448;SDS011;9863;49.404;8.246;2022-07-06T03:22:29;712.85;;;659.78;;
19448;SDS011;9863;49.404;8.246;2022-07-06T03:24:59;703.63;;;650.72;;
19448;SDS011;9863;49.404;8.246;2022-07-06T03:27:28;707.10;;;654.70;;
19448;SDS011;9863;49.404;8.246;2022-07-06T03:29:57;698.75;;;646.22;;
19448;SDS011;9863;49.404;8.246;2022-07-06T03:32:26;694.88;;;643.53;;
19448;SDS011;9863;49.404;8.246;2022-07-06T03:34:54;698.25;;;646.42;;
19448;SDS011;9863;49.404;8.246;2022-07-06T03:37:23;694.75;;;641.95;;
19448;SDS011;9863;49.404;8.246;2022-07-06T03:39:51;692.28;;;640.15;;
19448;SDS011;9863;49.404;8.246;2022-07-06T03:42:20;686.67;;;634.38;;
19448;SDS011;9863;49.404;8.246;2022-07-06T03:44:49;692.88;;;640.03;;
19448;SDS011;9863;49.404;8.246;2022-07-06T03:47:17;693.83;;;641.08;;
19448;SDS011;9863;49.404;8.246;2022-07-06T03:49:46;687.28;;;634.60;;
19448;SDS011;9863;49.404;8.246;2022-07-06T03:52:14;687.90;;;634.88;;
19448;SDS011;9863;49.404;8.246;2022-07-06T03:54:49;676.85;;;624.70;;
19448;SDS011;9863;49.404;8.246;2022-07-06T03:57:23;681.22;;;628.17;;
19448;SDS011;9863;49.404;8.246;2022-07-06T04:12:07;640.35;;;588.28;;
19448;SDS011;9863;49.404;8.246;2022-07-06T04:14:36;666.40;;;612.10;;
19448;SDS011;9863;49.404;8.246;2022-07-06T04:17:05;655.70;;;604.25;;
19448;SDS011;9863;49.404;8.246;2022-07-06T04:19:53;652.40;;;601.30;;
19448;SDS011;9863;49.404;8.246;2022-07-06T04:22:21;658.08;;;605.92;;
19448;SDS011;9863;49.404;8.246;2022-07-06T04:24:50;657.28;;;605.90;;
19448;SDS011;9863;49.404;8.246;2022-07-06T04:27:18;668.13;;;615.88;;
19448;SDS011;9863;49.404;8.246;2022-07-06T04:29:46;673.15;;;620.78;;
19448;SDS011;9863;49.404;8.246;2022-07-06T04:32:15;666.50;;;614.25;;
19448;SDS011;9863;49.404;8.246;2022-07-06T04:34:51;655.20;;;604.47;;
19448;SDS011;9863;49.404;8.246;2022-07-06T04:37:19;656.97;;;606.85;;
19448;SDS011;9863;49.404;8.246;2022-07-06T04:39:47;658.38;;;606.95;;
19448;SDS011;9863;49.404;8.246;2022-07-06T04:42:15;666.22;;;614.28;;
19448;SDS011;9863;49.404;8.246;2022-07-06T04:44:44;663.85;;;612.35;;
19448;SDS011;9863;49.404;8.246;2022-07-06T04:47:13;667.38;;;615.72;;
19448;SDS011;9863;49.404;8.246;2022-07-06T04:49:43;667.00;;;614.80;;
19448;SDS011;9863;49.404;8.246;2022-07-06T04:52:13;658.35;;;607.17;;
19448;SDS011;9863;49.404;8.246;2022-07-06T04:54:41;657.33;;;606.53;;
19448;SDS011;9863;49.404;8.246;2022-07-06T04:57:10;654.17;;;602.78;;
19448;SDS011;9863;49.404;8.246;2022-07-06T04:59:41;662.53;;;610.72;;
19448;SDS011;9863;49.404;8.246;2022-07-06T05:02:09;670.60;;;618.00;;
19448;SDS011;9863;49.404;8.246;2022-07-06T05:04:38;664.95;;;612.65;;
19448;SDS011;9863;49.404;8.246;2022-07-06T05:07:07;668.75;;;616.53;;
19448;SDS011;9863;49.404;8.246;2022-07-06T05:09:35;662.35;;;611.08;;
19448;SDS011;9863;49.404;8.246;2022-07-06T05:12:04;665.58;;;613.92;;
19448;SDS011;9863;49.404;8.246;2022-07-06T05:14:33;674.67;;;622.03;;
19448;SDS011;9863;49.404;8.246;2022-07-06T05:17:04;668.10;;;617.15;;
19448;SDS011;9863;49.404;8.246;2022-07-06T05:19:33;682.50;;;628.88;;
19448;SDS011;9863;49.404;8.246;2022-07-06T05:22:02;685.10;;;631.17;;
19448;SDS011;9863;49.404;8.246;2022-07-06T05:24:31;704.65;;;649.28;;
19448;SDS011;9863;49.404;8.246;2022-07-06T05:27:00;701.90;;;647.50;;
19448;SDS011;9863;49.404;8.246;2022-07-06T05:29:28;696.20;;;642.70;;
19448;SDS011;9863;49.404;8.246;2022-07-06T05:31:57;702.95;;;648.28;;
19448;SDS011;9863;49.404;8.246;2022-07-06T05:34:25;707.05;;;651.83;;
19448;SDS011;9863;49.404;8.246;2022-07-06T05:36:54;704.65;;;650.35;;
19448;SDS011;9863;49.404;8.246;2022-07-06T05:39:22;704.20;;;648.70;;
19448;SDS011;9863;49.404;8.246;2022-07-06T05:41:51;694.45;;;643.05;;
19448;SDS011;9863;49.404;8.246;2022-07-06T05:44:20;698.97;;;646.08;;
19448;SDS011;9863;49.404;8.246;2022-07-06T05:46:48;706.47;;;653.60;;
19448;SDS011;9863;49.404;8.246;2022-07-06T05:49:18;710.35;;;657.67;;
19448;SDS011;9863;49.404;8.246;2022-07-06T05:52:04;699.92;;;648.35;;
19448;SDS011;9863;49.404;8.246;2022-07-06T05:54:32;706.20;;;654.03;;
19448;SDS011;9863;49.404;8.246;2022-07-06T05:57:01;722.55;;;668.50;;
19448;SDS011;9863;49.404;8.246;2022-07-06T05:59:29;719.60;;;666.40;;
19448;SDS011;9863;49.404;8.246;2022-07-06T06:01:57;701.22;;;648.92;;
19448;SDS011;9863;49.404;8.246;2022-07-06T06:04:26;707.13;;;655.65;;
19448;SDS011;9863;49.404;8.246;2022-07-06T06:06:54;708.97;;;655.70;;
19448;SDS011;9863;49.404;8.246;2022-07-06T06:09:22;700.85;;;648.88;;
19448;SDS011;9863;49.404;8.246;2022-07-06T06:11:51;715.00;;;662.28;;
19448;SDS011;9863;49.404;8.246;2022-07-06T06:14:20;710.60;;;657.72;;
19448;SDS011;9863;49.404;8.246;2022-07-06T06:16:48;725.85;;;672.33;;
19448;SDS011;9863;49.404;8.246;2022-07-06T06:19:16;719.22;;;666.03;;
19448;SDS011;9863;49.404;8.246;2022-07-06T06:21:44;727.13;;;674.08;;
19448;SDS011;9863;49.404;8.246;2022-07-06T06:24:12;733.15;;;679.80;;
19448;SDS011;9863;49.404;8.246;2022-07-06T06:26:40;732.17;;;678.38;;
19448;SDS011;9863;49.404;8.246;2022-07-06T06:29:09;738.08;;;685.00;;
19448;SDS011;9863;49.404;8.246;2022-07-06T06:31:36;733.45;;;680.92;;
19448;SDS011;9863;49.404;8.246;2022-07-06T06:34:08;742.30;;;689.35;;
19448;SDS011;9863;49.404;8.246;2022-07-06T06:36:36;753.15;;;699.53;;
19448;SDS011;9863;49.404;8.246;2022-07-06T06:39:04;758.28;;;703.58;;
19448;SDS011;9863;49.404;8.246;2022-07-06T06:41:32;759.30;;;705.45;;
19448;SDS011;9863;49.404;8.246;2022-07-06T06:44:00;764.42;;;710.10;;
19448;SDS011;9863;49.404;8.246;2022-07-06T06:46:38;766.08;;;711.85;;
19448;SDS011;9863;49.404;8.246;2022-07-06T06:49:07;769.50;;;715.88;;
19448;SDS011;9863;49.404;8.246;2022-07-06T06:51:35;776.45;;;721.65;;
19448;SDS011;9863;49.404;8.246;2022-07-06T06:54:05;777.25;;;722.80;;
19448;SDS011;9863;49.404;8.246;2022-07-06T06:56:34;782.28;;;727.20;;
19448;SDS011;9863;49.404;8.246;2022-07-06T06:59:02;785.90;;;730.88;;
19448;SDS011;9863;49.404;8.246;2022-07-06T07:01:45;783.53;;;728.88;;
19448;SDS011;9863;49.404;8.246;2022-07-06T07:04:22;793.92;;;738.92;;
19448;SDS011;9863;49.404;8.246;2022-07-06T07:06:50;793.95;;;738.58;;
19448;SDS011;9863;49.404;8.246;2022-07-06T07:09:18;804.63;;;748.30;;
19448;SDS011;9863;49.404;8.246;2022-07-06T07:11:47;803.97;;;749.40;;
19448;SDS011;9863;49.404;8.246;2022-07-06T07:14:15;818.88;;;763.03;;
19448;SDS011;9863;49.404;8.246;2022-07-06T07:16:43;806.70;;;751.42;;
19448;SDS011;9863;49.404;8.246;2022-07-06T07:19:11;816.42;;;761.65;;
19448;SDS011;9863;49.404;8.246;2022-07-06T07:21:39;820.97;;;765.20;;
19448;SDS011;9863;49.404;8.246;2022-07-06T07:24:08;825.25;;;769.88;;
19448;SDS011;9863;49.404;8.246;2022-07-06T07:26:37;827.88;;;772.42;;
19448;SDS011;9863;49.404;8.246;2022-07-06T07:29:05;832.70;;;776.75;;
19448;SDS011;9863;49.404;8.246;2022-07-06T07:31:33;831.35;;;776.17;;
19448;SDS011;9863;49.404;8.246;2022-07-06T07:34:01;846.60;;;789.70;;
19448;SDS011;9863;49.404;8.246;2022-07-06T07:36:30;848.45;;;792.45;;
19448;SDS011;9863;49.404;8.246;2022-07-06T07:38:58;844.33;;;789.42;;
19448;SDS011;9863;49.404;8.246;2022-07-06T07:41:26;852.72;;;796.50;;
19448;SDS011;9863;49.404;8.246;2022-07-06T07:43:54;858.90;;;801.97;;
19448;SDS011;9863;49.404;8.246;2022-07-06T07:46:23;863.60;;;806.80;;
19448;SDS011;9863;49.404;8.246;2022-07-06T07:48:51;866.05;;;809.35;;
19448;SDS011;9863;49.404;8.246;2022-07-06T07:51:19;871.95;;;814.45;;
19448;SDS011;9863;49.404;8.246;2022-07-06T07:53:47;875.17;;;817.30;;
19448;SDS011;9863;49.404;8.246;2022-07-06T07:56:16;870.22;;;812.70;;
19448;SDS011;9863;49.404;8.246;2022-07-06T07:58:44;881.53;;;823.50;;
19448;SDS011;9863;49.404;8.246;2022-07-06T08:01:14;877.15;;;819.97;;
19448;SDS011;9863;49.404;8.246;2022-07-06T08:03:42;882.00;;;824.70;;
19448;SDS011;9863;49.404;8.246;2022-07-06T08:06:11;882.55;;;825.28;;
19448;SDS011;9863;49.404;8.246;2022-07-06T08:08:39;883.00;;;827.03;;
19448;SDS011;9863;49.404;8.246;2022-07-06T08:11:07;891.50;;;834.05;;
19448;SDS011;9863;49.404;8.246;2022-07-06T08:13:46;896.72;;;839.08;;
19448;SDS011;9863;49.404;8.246;2022-07-06T08:16:14;903.05;;;845.05;;
19448;SDS011;9863;49.404;8.246;2022-07-06T08:18:42;912.78;;;854.03;;
19448;SDS011;9863;49.404;8.246;2022-07-06T08:21:10;912.92;;;854.53;;
19448;SDS011;9863;49.404;8.246;2022-07-06T08:23:54;918.17;;;859.28;;
19448;SDS011;9863;49.404;8.246;2022-07-06T08:26:23;913.80;;;855.55;;
19448;SDS011;9863;49.404;8.246;2022-07-06T08:28:51;915.88;;;857.60;;
19448;SDS011;9863;49.404;8.246;2022-07-06T08:31:20;924.42;;;865.28;;
19448;SDS011;9863;49.404;8.246;2022-07-06T08:34:08;919.72;;;860.70;;
19448;SDS011;9863;49.404;8.246;2022-07-06T08:36:37;932.70;;;873.47;;
19448;SDS011;9863;49.404;8.246;2022-07-06T08:39:05;940.00;;;880.30;;
19448;SDS011;9863;49.404;8.246;2022-07-06T08:41:33;956.10;;;893.75;;
19448;SDS011;9863;49.404;8.246;2022-07-06T08:44:03;950.75;;;890.75;;
19448;SDS011;9863;49.404;8.246;2022-07-06T08:46:32;946.05;;;888.15;;
19448;SDS011;9863;49.404;8.246;2022-07-06T08:49:00;961.88;;;901.90;;
19448;SDS011;9863;49.404;8.246;2022-07-06T08:51:29;972.65;;;912.70;;
19448;SDS011;9863;49.404;8.246;2022-07-06T08:53:57;966.47;;;904.80;;
19448;SDS011;9863;49.404;8.246;2022-07-06T08:56:26;971.08;;;910.75;;
19448;SDS011;9863;49.404;8.246;2022-07-06T08:58:56;970.30;;;910.83;;
19448;SDS011;9863;49.404;8.246;2022-07-06T09:01:24;978.95;;;918.50;;
19448;SDS011;9863;49.404;8.246;2022-07-06T09:03:54;981.92;;;920.72;;
19448;SDS011;9863;49.404;8.246;2022-07-06T09:06:24;981.03;;;919.20;;
19448;SDS011;9863;49.404;8.246;2022-07-06T09:08:55;979.72;;;919.63;;
19448;SDS011;9863;49.404;8.246;2022-07-06T09:11:23;991.42;;;929.97;;
19448;SDS011;9863;49.404;8.246;2022-07-06T09:13:55;997.42;;;935.25;;
19448;SDS011;9863;49.404;8.246;2022-07-06T09:16:27;1001.22;;;939.05;;
19448;SDS011;9863;49.404;8.246;2022-07-06T09:19:07;1008.83;;;946.28;;
19448;SDS011;9863;49.404;8.246;2022-07-06T09:21:35;1019.95;;;957.22;;
19448;SDS011;9863;49.404;8.246;2022-07-06T09:24:09;1027.75;;;963.97;;
19448;SDS011;9863;49.404;8.246;2022-07-06T09:26:39;1021.10;;;958.50;;
19448;SDS011;9863;49.404;8.246;2022-07-06T09:29:08;1020.40;;;957.45;;
19448;SDS011;9863;49.404;8.246;2022-07-06T09:31:38;1018.70;;;956.60;;
19448;SDS011;9863;49.404;8.246;2022-07-06T09:34:08;1030.60;;;967.42;;
19448;SDS011;9863;49.404;8.246;2022-07-06T09:39:14;1039.05;;;974.95;;
19448;SDS011;9863;49.404;8.246;2022-07-06T09:41:48;1042.40;;;978.40;;
19448;SDS011;9863;49.404;8.246;2022-07-06T09:44:31;1038.07;;;974.10;;
19448;SDS011;9863;49.404;8.246;2022-07-06T09:47:07;1035.43;;;971.83;;
19448;SDS011;9863;49.404;8.246;2022-07-06T09:49:38;1034.65;;;972.38;;
19448;SDS011;9863;49.404;8.246;2022-07-06T09:52:08;1044.50;;;980.58;;
19448;SDS011;9863;49.404;8.246;2022-07-06T09:54:37;1050.57;;;986.88;;
19448;SDS011;9863;49.404;8.246;2022-07-06T09:57:07;1052.53;;;989.13;;
19448;SDS011;9863;49.404;8.246;2022-07-06T09:59:36;1054.75;;;991.90;;
19448;SDS011;9863;49.404;8.246;2022-07-06T10:02:05;1068.35;;;998.72;;
19448;SDS011;9863;49.404;8.246;2022-07-06T10:04:35;1051.40;;;988.83;;
19448;SDS011;9863;49.404;8.246;2022-07-06T10:07:03;1052.75;;;989.72;;
19448;SDS011;9863;49.404;8.246;2022-07-06T10:09:34;1047.47;;;984.45;;
19448;SDS011;9863;49.404;8.246;2022-07-06T10:12:03;1048.80;;;985.60;;
19448;SDS011;9863;49.404;8.246;2022-07-06T10:14:33;1046.18;;;983.65;;
19448;SDS011;9863;49.404;8.246;2022-07-06T10:17:02;1062.70;;;997.15;;
19448;SDS011;9863;49.404;8.246;2022-07-06T10:19:32;1069.05;;;999.13;;
19448;SDS011;9863;49.404;8.246;2022-07-06T10:22:02;1074.80;;;999.90;;
19448;SDS011;9863;49.404;8.246;2022-07-06T10:24:31;1081.90;;;999.90;;
19448;SDS011;9863;49.404;8.246;2022-07-06T10:27:02;1081.30;;;999.90;;
19448;SDS011;9863;49.404;8.246;2022-07-06T10:29:31;1082.63;;;999.90;;
19448;SDS011;9863;49.404;8.246;2022-07-06T10:31:59;1086.60;;;999.90;;
19448;SDS011;9863;49.404;8.246;2022-07-06T10:34:29;1079.38;;;999.90;;
19448;SDS011;9863;49.404;8.246;2022-07-06T10:36:57;1079.90;;;999.90;;
19448;SDS011;9863;49.404;8.246;2022-07-06T10:39:35;1083.95;;;999.90;;
19448;SDS011;9863;49.404;8.246;2022-07-06T10:45:19;1089.18;;;999.90;;
19448;SDS011;9863;49.404;8.246;2022-07-06T10:53:24;1098.15;;;999.90;;
19448;SDS011;9863;49.404;8.246;2022-07-06T10:55:55;1092.50;;;999.90;;
19448;SDS011;9863;49.404;8.246;2022-07-06T11:01:10;1095.68;;;999.90;;
19448;SDS011;9863;49.404;8.246;2022-07-06T11:03:49;1096.15;;;999.90;;
19448;SDS011;9863;49.404;8.246;2022-07-06T11:06:24;1105.22;;;999.90;;
19448;SDS011;9863;49.404;8.246;2022-07-06T11:14:01;1117.03;;;999.90;;
19448;SDS011;9863;49.404;8.246;2022-07-06T11:19:24;1116.43;;;999.90;;
19448;SDS011;9863;49.404;8.246;2022-07-06T11:21:53;1115.43;;;999.90;;
19448;SDS011;9863;49.404;8.246;2022-07-06T11:24:38;1125.22;;;999.90;;
19448;SDS011;9863;49.404;8.246;2022-07-06T11:27:07;1124.38;;;999.90;;
19448;SDS011;9863;49.404;8.246;2022-07-06T11:29:36;1135.20;;;999.90;;
19448;SDS011;9863;49.404;8.246;2022-07-06T11:32:07;1138.80;;;999.90;;
19448;SDS011;9863;49.404;8.246;2022-07-06T11:34:41;1135.47;;;999.90;;
19448;SDS011;9863;49.404;8.246;2022-07-06T11:37:11;1142.80;;;999.90;;
19448;SDS011;9863;49.404;8.246;2022-07-06T11:39:42;1144.63;;;999.90;;
19448;SDS011;9863;49.404;8.246;2022-07-06T11:42:15;1142.25;;;999.90;;
19448;SDS011;9863;49.404;8.246;2022-07-06T11:44:45;1132.20;;;999.90;;
19448;SDS011;9863;49.404;8.246;2022-07-06T11:47:14;1123.25;;;999.90;;
19448;SDS011;9863;49.404;8.246;2022-07-06T11:49:50;1136.25;;;999.90;;
19448;SDS011;9863;49.404;8.246;2022-07-06T11:52:19;1101.70;;;999.90;;
19448;SDS011;9863;49.404;8.246;2022-07-06T11:54:47;1114.50;;;999.90;;
19448;SDS011;9863;49.404;8.246;2022-07-06T11:57:15;1143.38;;;999.90;;
19448;SDS011;9863;49.404;8.246;2022-07-06T11:59:44;1149.00;;;999.90;;
19448;SDS011;9863;49.404;8.246;2022-07-06T12:02:15;1155.07;;;999.90;;
19448;SDS011;9863;49.404;8.246;2022-07-06T12:04:45;1181.65;;;999.90;;
19448;SDS011;9863;49.404;8.246;2022-07-06T12:07:14;1180.28;;;999.90;;
19448;SDS011;9863;49.404;8.246;2022-07-06T12:09:45;1167.53;;;999.90;;
19448;SDS011;9863;49.404;8.246;2022-07-06T12:12:14;1167.82;;;999.90;;
19448;SDS011;9863;49.404;8.246;2022-07-06T12:14:44;1146.35;;;999.90;;
19448;SDS011;9863;49.404;8.246;2022-07-06T12:17:13;1100.63;;;999.90;;
19448;SDS011;9863;49.404;8.246;2022-07-06T12:19:43;1134.38;;;999.90;;
19448;SDS011;9863;49.404;8.246;2022-07-06T12:22:11;1138.13;;;999.90;;
19448;SDS011;9863;49.404;8.246;2022-07-06T12:24:43;1143.47;;;999.90;;
19448;SDS011;9863;49.404;8.246;2022-07-06T12:27:15;1158.68;;;999.90;;
19448;SDS011;9863;49.404;8.246;2022-07-06T12:29:45;1169.10;;;999.90;;
19448;SDS011;9863;49.404;8.246;2022-07-06T12:32:15;1180.00;;;999.90;;
19448;SDS011;9863;49.404;8.246;2022-07-06T12:34:45;1187.47;;;999.90;;
19448;SDS011;9863;49.404;8.246;2022-07-06T12:37:14;1188.50;;;999.90;;
19448;SDS011;9863;49.404;8.246;2022-07-06T12:39:43;1193.18;;;999.90;;
19448;SDS011;9863;49.404;8.246;2022-07-06T12:42:15;1201.53;;;999.90;;
19448;SDS011;9863;49.404;8.246;2022-07-06T12:44:48;1201.68;;;999.90;;
19448;SDS011;9863;49.404;8.246;2022-07-06T12:47:21;1208.93;;;999.90;;
19448;SDS011;9863;49.404;8.246;2022-07-06T12:50:08;1203.32;;;999.90;;
19448;SDS011;9863;49.404;8.246;2022-07-06T12:52:38;1186.63;;;999.90;;
19448;SDS011;9863;49.404;8.246;2022-07-06T12:55:07;1207.35;;;999.90;;
19448;SDS011;9863;49.404;8.246;2022-07-06T12:57:43;1203.25;;;999.90;;
19448;SDS011;9863;49.404;8.246;2022-07-06T13:00:14;1189.70;;;999.90;;
19448;SDS011;9863;49.404;8.246;2022-07-06T13:02:44;1192.53;;;999.90;;
19448;SDS011;9863;49.404;8.246;2022-07-06T13:05:34;1205.25;;;999.90;;
19448;SDS011;9863;49.404;8.246;2022-07-06T13:08:04;1211.03;;;999.90;;
19448;SDS011;9863;49.404;8.246;2022-07-06T13:10:33;1202.47;;;999.90;;
19448;SDS011;9863;49.404;8.246;2022-07-06T13:13:03;1204.20;;;999.90;;
19448;SDS011;9863;49.404;8.246;2022-07-06T13:15:31;1201.47;;;999.90;;
19448;SDS011;9863;49.404;8.246;2022-07-06T13:17:59;1196.75;;;999.90;;
19448;SDS011;9863;49.404;8.246;2022-07-06T13:20:27;1190.50;;;999.90;;
19448;SDS011;9863;49.404;8.246;2022-07-06T13:22:56;1191.07;;;999.90;;
19448;SDS011;9863;49.404;8.246;2022-07-06T13:25:24;1185.80;;;999.90;;
19448;SDS011;9863;49.404;8.246;2022-07-06T13:27:52;1179.53;;;999.90;;
19448;SDS011;9863;49.404;8.246;2022-07-06T13:30:21;1185.78;;;999.90;;
19448;SDS011;9863;49.404;8.246;2022-07-06T13:32:49;1190.47;;;999.90;;
19448;SDS011;9863;49.404;8.246;2022-07-06T13:35:18;1195.35;;;999.90;;
19448;SDS011;9863;49.404;8.246;2022-07-06T13:37:46;1191.20;;;999.90;;
19448;SDS011;9863;49.404;8.246;2022-07-06T13:40:17;1200.80;;;999.90;;
19448;SDS011;9863;49.404;8.246;2022-07-06T13:42:45;1193.40;;;999.90;;
19448;SDS011;9863;49.404;8.246;2022-07-06T13:45:13;1195.90;;;999.90;;
19448;SDS011;9863;49.404;8.246;2022-07-06T13:47:41;1186.07;;;999.90;;
19448;SDS011;9863;49.404;8.246;2022-07-06T13:50:10;1189.05;;;999.90;;
19448;SDS011;9863;49.404;8.246;2022-07-06T13:52:38;1183.57;;;999.90;;
19448;SDS011;9863;49.404;8.246;2022-07-06T13:55:06;1177.15;;;999.90;;
19448;SDS011;9863;49.404;8.246;2022-07-06T13:57:36;1175.63;;;999.90;;
19448;SDS011;9863;49.404;8.246;2022-07-06T14:00:08;1184.97;;;999.90;;
19448;SDS011;9863;49.404;8.246;2022-07-06T14:02:38;1178.82;;;999.90;;
19448;SDS011;9863;49.404;8.246;2022-07-06T14:05:09;1185.88;;;999.90;;
19448;SDS011;9863;49.404;8.246;2022-07-06T14:07:38;1179.28;;;999.90;;
19448;SDS011;9863;49.404;8.246;2022-07-06T14:10:07;1199.95;;;999.90;;
19448;SDS011;9863;49.404;8.246;2022-07-06T14:12:35;1179.13;;;999.90;;
19448;SDS011;9863;49.404;8.246;2022-07-06T14:15:04;1187.78;;;999.90;;
19448;SDS011;9863;49.404;8.246;2022-07-06T14:17:32;1183.82;;;999.90;;
19448;SDS011;9863;49.404;8.246;2022-07-06T14:20:01;1192.70;;;999.90;;
19448;SDS011;9863;49.404;8.246;2022-07-06T14:22:29;1178.65;;;999.90;;
19448;SDS011;9863;49.404;8.246;2022-07-06T14:24:57;1179.72;;;999.90;;
19448;SDS011;9863;49.404;8.246;2022-07-06T14:27:26;1183.47;;;999.90;;
19448;SDS011;9863;49.404;8.246;2022-07-06T14:29:55;1180.15;;;999.90;;
19448;SDS011;9863;49.404;8.246;2022-07-06T14:32:23;1167.35;;;999.90;;
19448;SDS011;9863;49.404;8.246;2022-07-06T14:34:51;1176.35;;;999.90;;
19448;SDS011;9863;49.404;8.246;2022-07-06T14:37:19;1179.65;;;999.90;;
19448;SDS011;9863;49.404;8.246;2022-07-06T14:39:47;1169.10;;;999.90;;
19448;SDS011;9863;49.404;8.246;2022-07-06T14:42:16;1174.10;;;999.90;;
19448;SDS011;9863;49.404;8.246;2022-07-06T14:44:44;1169.28;;;999.90;;
19448;SDS011;9863;49.404;8.246;2022-07-06T14:47:12;1171.30;;;999.90;;
19448;SDS011;9863;49.404;8.246;2022-07-06T14:49:40;1174.85;;;999.90;;
19448;SDS011;9863;49.404;8.246;2022-07-06T14:52:08;1165.60;;;999.90;;